Time;durP1;ratioP1;P1;durP2;ratioP2;P2;SDS_P1;SDS_P2;PMS_P1;PMS_P2;Temp;Humidity;BMP_temperature;BMP_pressure;BME280_temperature;BME280_humidity;BME280_pressure;Samples;Min_cycle;Max_cycle;Signal;HPM_P1;HPM_P2
2022/11/19 00:01:04;;;;;;;19.47;7.67;;;;;;;-5.03;84.78;100837.31;5073391;28;20480;-67
2022/11/19 00:03:32;;;;;;;15.50;6.30;;;;;;;-5.06;86.52;100838.50;5074889;28;21035;-67
2022/11/19 00:06:04;;;;;;;12.80;6.70;;;;;;;-5.09;86.57;100836.25;5074658;28;20440;-67
2022/11/19 00:08:31;;;;;;;13.97;7.43;;;;;;;-5.05;86.97;100834.03;5074632;28;20869;-67
2022/11/19 00:11:03;;;;;;;12.30;6.30;;;;;;;-5.03;87.17;100830.22;5074022;28;20511;-67
2022/11/19 00:13:29;;;;;;;14.63;7.90;;;;;;;-4.90;87.26;100827.66;5074885;28;20763;-67
2022/11/19 00:15:56;;;;;;;15.27;7.03;;;;;;;-5.02;86.12;100831.84;5074179;28;20461;-67
2022/11/19 00:18:22;;;;;;;20.00;9.27;;;;;;;-4.89;86.29;100831.91;5075019;28;20209;-67
2022/11/19 00:20:49;;;;;;;13.83;8.00;;;;;;;-4.80;86.82;100837.06;5073913;28;20483;-67
2022/11/19 00:23:16;;;;;;;18.07;8.60;;;;;;;-4.63;85.60;100835.75;5074819;28;20570;-67
2022/11/19 00:25:42;;;;;;;14.07;7.27;;;;;;;-4.65;86.64;100845.66;5073344;28;20483;-67
2022/11/19 00:28:10;;;;;;;15.30;8.40;;;;;;;-4.59;86.68;100850.19;5074901;28;20498;-67
2022/11/19 00:30:38;;;;;;;16.50;7.27;;;;;;;-4.67;86.78;100845.06;5090200;28;20554;-68
2022/11/19 00:33:05;;;;;;;15.27;7.90;;;;;;;-4.72;86.52;100839.56;5095695;28;20442;-67
2022/11/19 00:35:32;;;;;;;15.88;7.40;;;;;;;-4.68;86.92;100846.91;5078452;28;20506;-68
2022/11/19 00:37:58;;;;;;;15.00;7.10;;;;;;;-4.60;87.55;100851.22;5074381;28;20213;-67
2022/11/19 00:40:25;;;;;;;22.00;8.18;;;;;;;-4.66;85.76;100844.03;5088484;28;20484;-67
2022/11/19 00:45:33;;;;;;;18.77;7.90;;;;;;;-4.88;87.66;100852.03;5073739;28;20477;-68
2022/11/19 00:48:00;;;;;;;21.23;8.97;;;;;;;-4.86;86.74;100851.88;5074468;28;20528;-67
2022/11/19 00:50:26;;;;;;;25.10;9.20;;;;;;;-4.89;85.57;100858.34;5073213;28;20515;-67
2022/11/19 00:52:53;;;;;;;20.23;7.73;;;;;;;-4.88;84.88;100859.16;5074317;28;20524;-68
2022/11/19 00:55:20;;;;;;;13.77;7.90;;;;;;;-5.01;83.57;100862.50;5072831;28;20544;-67
2022/11/19 00:57:46;;;;;;;24.70;9.17;;;;;;;-4.99;83.18;100868.44;5074192;28;20471;-67
2022/11/19 01:00:14;;;;;;;21.60;10.17;;;;;;;-4.85;82.27;100862.22;5072957;28;20481;-68
2022/11/19 01:02:42;;;;;;;13.80;8.30;;;;;;;-5.03;83.91;100867.19;5073790;28;20575;-68
2022/11/19 01:05:09;;;;;;;16.27;8.50;;;;;;;-5.07;83.39;100863.28;5073716;28;20462;-67
2022/11/19 01:07:35;;;;;;;23.20;8.93;;;;;;;-5.23;82.86;100866.19;5072902;28;20457;-67
2022/11/19 01:10:02;;;;;;;13.80;7.23;;;;;;;-5.08;83.45;100875.69;5072859;28;20512;-67
2022/11/19 01:12:28;;;;;;;14.20;7.07;;;;;;;-5.03;82.37;100874.28;5073976;28;20473;-67
2022/11/19 01:14:55;;;;;;;14.03;6.80;;;;;;;-5.28;83.85;100860.66;5074224;28;20204;-68
2022/11/19 01:17:22;;;;;;;21.43;7.80;;;;;;;-5.19;83.05;100867.44;5072758;28;20461;-67
2022/11/19 01:19:49;;;;;;;19.90;8.50;;;;;;;-5.34;82.76;100868.34;5072800;28;20515;-68
2022/11/19 01:22:16;;;;;;;20.50;8.40;;;;;;;-5.33;82.99;100867.34;5073716;28;20486;-68
2022/11/19 01:24:42;;;;;;;18.90;8.97;;;;;;;-5.28;84.04;100860.66;5072879;28;20977;-67
2022/11/19 01:27:09;;;;;;;19.07;7.63;;;;;;;-5.14;82.94;100867.69;5072274;28;20465;-67
2022/11/19 01:29:36;;;;;;;14.30;7.53;;;;;;;-5.09;81.12;100868.78;5073167;28;21057;-67
2022/11/19 01:32:02;;;;;;;18.03;7.63;;;;;;;-5.26;83.93;100862.13;5073617;28;20924;-67
2022/11/19 01:34:29;;;;;;;15.43;5.80;;;;;;;-5.40;85.51;100863.00;5073524;28;20484;-67
2022/11/19 01:36:57;;;;;;;13.73;7.03;;;;;;;-5.36;85.93;100866.88;5072915;28;20440;-67
2022/11/19 01:39:24;;;;;;;16.10;7.77;;;;;;;-5.35;86.66;100866.72;5073511;28;20544;-67
2022/11/19 01:41:50;;;;;;;13.97;6.50;;;;;;;-5.24;84.73;100870.66;5072502;28;20445;-67
2022/11/19 01:45:02;;;;;;;19.13;10.20;;;;;;;-5.31;83.92;100869.81;5073376;28;20505;-67
2022/11/19 01:47:29;;;;;;;21.35;8.68;;;;;;;-5.22;83.31;100870.47;5048379;28;20456;-67
2022/11/19 01:49:55;;;;;;;15.27;8.27;;;;;;;-5.30;83.98;100874.06;5073301;28;20229;-67
2022/11/19 01:52:23;;;;;;;13.57;7.63;;;;;;;-5.22;83.47;100870.47;5072586;28;20454;-67
2022/11/19 01:54:55;;;;;;;26.73;7.87;;;;;;;-5.28;82.35;100876.50;5073268;28;20438;-69
2022/11/19 01:57:22;;;;;;;29.10;7.03;;;;;;;-5.28;82.42;100872.03;5077948;28;20996;-68
2022/11/19 01:59:51;;;;;;;15.30;7.43;;;;;;;-5.38;82.18;100876.84;5093131;28;20460;-69
2022/11/19 02:02:21;;;;;;;14.93;6.90;;;;;;;-5.36;81.97;100882.72;5083342;28;20482;-67
2022/11/19 02:04:50;;;;;;;11.47;6.93;;;;;;;-5.38;82.66;100882.91;5072262;28;20511;-68
2022/11/19 02:07:20;;;;;;;13.60;7.00;;;;;;;-5.54;81.88;100888.44;5072944;28;21133;-66
2022/11/19 02:09:49;;;;;;;13.60;7.68;;;;;;;-5.74;83.82;100882.97;5071932;28;20511;-66
2022/11/19 02:12:28;;;;;;;16.73;6.97;;;;;;;-5.71;83.10;100897.59;5072553;28;20879;-66
2022/11/19 02:15:10;;;;;;;14.60;7.10;;;;;;;-5.69;84.00;100890.31;5071546;28;20450;-66
2022/11/19 02:18:05;;;;;;;9.50;5.10;;;;;;;-5.79;83.40;100889.81;5073138;28;20417;-66
2022/11/19 02:20:44;;;;;;;18.20;7.73;;;;;;;-5.79;84.34;100889.81;5071648;28;20481;-66
2022/11/19 02:23:30;;;;;;;16.17;6.87;;;;;;;-5.74;85.44;100884.78;5077252;28;20555;-66
2022/11/19 02:26:26;;;;;;;11.80;6.43;;;;;;;-5.80;84.38;100885.53;5075410;28;20459;-66
2022/11/19 02:28:59;;;;;;;15.10;6.10;;;;;;;-5.78;84.42;100886.16;5076414;28;20690;-66
2022/11/19 02:31:33;;;;;;;14.33;6.67;;;;;;;-5.78;84.08;100884.34;5077098;28;20520;-67
2022/11/19 02:34:09;;;;;;;19.00;6.37;;;;;;;-5.69;84.19;100885.06;5076011;28;20974;-67
2022/11/19 02:36:42;;;;;;;12.37;6.40;;;;;;;-5.61;84.20;100877.03;5076109;28;20536;-67
2022/11/19 02:39:16;;;;;;;18.83;7.10;;;;;;;-5.65;84.82;100881.03;5075218;28;20554;-67
2022/11/19 02:41:48;;;;;;;17.42;8.52;;;;;;;-5.81;83.57;100873.34;5076942;28;20202;-67
2022/11/19 02:47:06;;;;;;;11.80;6.13;;;;;;;-5.75;85.14;100875.25;5057568;28;20456;-67
2022/11/19 02:49:38;;;;;;;15.43;5.30;;;;;;;-5.74;83.84;100877.69;5076724;28;20471;-67
2022/11/19 02:52:05;;;;;;;9.67;5.60;;;;;;;-5.65;82.87;100881.03;5076505;28;20456;-67
2022/11/19 02:54:31;;;;;;;14.10;7.07;;;;;;;-5.65;83.87;100881.84;5075850;28;20521;-67
2022/11/19 02:56:58;;;;;;;12.30;6.75;;;;;;;-5.64;82.26;100880.03;5075819;28;20602;-67
2022/11/19 03:05:11;;;;;;;15.77;6.77;;;;;;;-5.43;79.05;100877.41;5096568;28;20424;-67
2022/11/19 03:07:38;;;;;;;14.27;6.80;;;;;;;-5.65;81.83;100875.75;5088596;28;20459;-67
2022/11/19 03:10:07;;;;;;;10.67;6.07;;;;;;;-5.78;83.51;100881.72;5076372;28;20457;-67
2022/11/19 03:12:45;;;;;;;13.98;6.18;;;;;;;-5.62;82.42;100878.84;5076020;28;20483;-67
2022/11/19 03:18:14;;;;;;;15.93;6.97;;;;;;;-5.75;82.05;100877.91;5075077;28;20463;-67
2022/11/19 03:20:44;;;;;;;12.27;5.70;;;;;;;-5.80;82.74;100880.25;5076176;28;20289;-67
2022/11/19 03:23:18;;;;;;;13.40;6.07;;;;;;;-5.84;82.60;100878.00;5075192;28;20519;-67
2022/11/19 03:25:49;;;;;;;14.20;6.37;;;;;;;-5.76;83.04;100881.50;5075921;28;20962;-68
2022/11/19 03:28:20;;;;;;;11.93;5.43;;;;;;;-5.84;82.69;100883.28;5091957;28;20466;-68
2022/11/19 03:30:49;;;;;;;12.40;6.10;;;;;;;-5.89;83.55;100875.13;5095972;28;20474;-68
2022/11/19 03:33:22;;;;;;;11.20;5.50;;;;;;;-5.89;83.71;100883.03;5078179;28;20507;-68
2022/11/19 03:35:53;;;;;;;21.53;6.53;;;;;;;-5.93;84.19;100886.22;5075673;28;20942;-68
2022/11/19 03:38:25;;;;;;;12.77;5.77;;;;;;;-5.97;83.78;100887.63;5073711;28;20888;-68
2022/11/19 03:40:54;;;;;;;13.23;6.50;;;;;;;-5.94;82.95;100898.59;5075724;28;20468;-68
2022/11/19 03:43:26;;;;;;;15.23;6.27;;;;;;;-5.88;83.48;100899.66;5075358;28;20223;-68
2022/11/19 03:45:56;;;;;;;13.43;5.70;;;;;;;-5.84;83.62;100901.75;5075604;28;20513;-68
2022/11/19 03:48:26;;;;;;;11.87;5.77;;;;;;;-5.89;82.30;100908.56;5071779;28;20449;-68
2022/11/19 03:50:56;;;;;;;14.23;4.90;;;;;;;-6.03;81.53;100904.97;5075328;28;20593;-68
2022/11/19 03:53:23;;;;;;;16.60;7.50;;;;;;;-5.92;81.89;100915.06;5055630;28;20520;-68
2022/11/19 03:55:55;;;;;;;10.97;5.83;;;;;;;-5.87;84.96;100915.28;5055234;28;20438;-68
2022/11/19 03:58:24;;;;;;;14.50;7.00;;;;;;;-5.70;84.90;100909.81;5064669;28;20500;-68
2022/11/19 04:00:50;;;;;;;14.23;7.20;;;;;;;-5.64;83.99;100909.03;5075438;28;20310;-68
2022/11/19 04:03:17;;;;;;;14.20;7.50;;;;;;;-5.68;82.97;100905.16;5075176;28;20487;-68
2022/11/19 04:05:45;;;;;;;15.97;7.93;;;;;;;-5.69;83.65;100906.16;5075004;28;20938;-68
2022/11/19 04:08:11;;;;;;;19.53;9.70;;;;;;;-5.79;83.20;100908.28;5072680;28;20553;-68
2022/11/19 04:10:38;;;;;;;19.67;10.40;;;;;;;-5.75;83.28;100907.72;5074313;28;20474;-68
2022/11/19 04:13:05;;;;;;;21.73;8.37;;;;;;;-5.89;83.92;100916.47;5092895;28;20642;-68
2022/11/19 04:15:31;;;;;;;16.50;7.73;;;;;;;-5.92;84.47;100917.69;5095295;28;20491;-68
2022/11/19 04:17:58;;;;;;;14.57;7.10;;;;;;;-5.62;84.62;100907.88;5054986;28;20488;-69
2022/11/19 04:20:24;;;;;;;18.00;8.68;;;;;;;-5.63;83.16;100900.94;5069294;28;20848;-68
2022/11/19 04:22:52;;;;;;;16.48;8.35;;;;;;;-5.82;82.78;100906.81;5074984;28;20234;-68
2022/11/19 04:25:19;;;;;;;18.75;9.65;;;;;;;-5.88;82.72;100912.84;5073712;28;20699;-68
2022/11/19 04:27:46;;;;;;;13.60;6.93;;;;;;;-5.71;83.00;100902.88;5074940;28;20209;-68
2022/11/19 04:30:14;;;;;;;16.10;7.78;;;;;;;-5.74;82.44;100892.72;5072663;28;20516;-68
2022/11/19 04:32:41;;;;;;;15.25;8.43;;;;;;;-5.80;82.45;100910.06;5074720;28;20221;-68
2022/11/19 04:35:08;;;;;;;16.17;8.87;;;;;;;-5.68;80.43;100903.31;5074698;28;20243;-67
2022/11/19 04:37:35;;;;;;;18.93;8.70;;;;;;;-5.78;82.01;100896.72;5073611;28;20457;-68
2022/11/19 04:40:03;;;;;;;15.95;8.77;;;;;;;-5.66;82.26;100900.50;5073708;28;20509;-68
2022/11/19 04:42:29;;;;;;;13.38;8.40;;;;;;;-5.84;81.00;100896.47;5074595;28;20231;-68
2022/11/19 04:44:56;;;;;;;18.33;8.30;;;;;;;-5.90;82.41;100899.00;5072904;28;20241;-68
2022/11/19 04:47:23;;;;;;;19.17;8.65;;;;;;;-5.98;83.01;100897.31;5074481;28;20441;-67
2022/11/19 04:49:49;;;;;;;16.35;8.68;;;;;;;-5.97;83.47;100900.81;5072325;28;20303;-68
2022/11/19 04:52:16;;;;;;;17.73;8.73;;;;;;;-6.02;84.36;100904.00;5074402;28;20311;-69
2022/11/19 04:54:42;;;;;;;15.53;9.30;;;;;;;-5.91;85.59;100892.94;5073765;28;20536;-68
2022/11/19 04:57:10;;;;;;;31.35;9.35;;;;;;;-5.98;84.59;100897.31;5074334;28;20866;-69
2022/11/19 04:59:37;;;;;;;22.40;10.00;;;;;;;-6.08;83.42;100896.81;5073643;28;20220;-68
2022/11/19 05:02:03;;;;;;;14.63;8.17;;;;;;;-6.03;83.43;100890.97;5072118;28;20465;-67
2022/11/19 05:04:30;;;;;;;15.50;8.55;;;;;;;-6.09;84.02;100897.81;5074157;28;20568;-68
2022/11/19 05:06:57;;;;;;;19.57;9.60;;;;;;;-6.10;84.02;100888.28;5073587;28;20199;-68
2022/11/19 05:09:23;;;;;;;20.83;9.90;;;;;;;-5.94;84.77;100888.03;5074137;28;20461;-69
2022/11/19 05:11:50;;;;;;;18.13;8.88;;;;;;;-5.98;85.13;100878.88;5072279;28;20468;-69
2022/11/19 05:14:18;;;;;;;20.47;10.43;;;;;;;-6.07;84.77;100887.88;5073987;28;20294;-69
2022/11/19 05:16:44;;;;;;;24.37;10.50;;;;;;;-6.14;84.28;100885.19;5085025;28;21044;-69
2022/11/19 05:19:11;;;;;;;23.55;11.23;;;;;;;-6.05;85.24;100885.91;5093810;28;20960;-69
2022/11/19 05:21:37;;;;;;;27.10;11.90;;;;;;;-6.07;85.92;100877.34;5081834;28;20202;-69
2022/11/19 05:24:04;;;;;;;17.85;9.63;;;;;;;-5.98;86.72;100872.78;5073737;28;20223;-69
2022/11/19 05:26:31;;;;;;;15.85;8.85;;;;;;;-5.84;86.35;100877.19;5073198;28;20256;-69
2022/11/19 05:28:57;;;;;;;28.53;10.33;;;;;;;-5.64;86.23;100878.19;5073233;28;20253;-69
2022/11/19 05:31:25;;;;;;;18.83;10.55;;;;;;;-5.68;85.83;100879.56;5071627;28;20955;-68
2022/11/19 05:33:52;;;;;;;15.90;9.45;;;;;;;-5.59;86.56;100881.09;5073352;28;20676;-68
2022/11/19 05:36:18;;;;;;;15.20;8.77;;;;;;;-5.54;87.05;100879.72;5072952;28;20303;-69
2022/11/19 05:38:45;;;;;;;22.10;9.27;;;;;;;-5.36;86.60;100864.25;5073285;28;20534;-69
2022/11/19 05:41:12;;;;;;;13.68;8.85;;;;;;;-5.38;86.25;100874.19;5072465;28;20472;-69
2022/11/19 05:43:38;;;;;;;35.50;9.80;;;;;;;-5.48;86.46;100871.06;5073422;28;20230;-68
2022/11/19 05:46:05;;;;;;;19.13;9.60;;;;;;;-5.42;86.91;100871.09;5072239;28;20474;-69
2022/11/19 05:48:33;;;;;;;19.67;10.40;;;;;;;-5.42;86.49;100871.09;5072849;28;20472;-69
2022/11/19 05:51:00;;;;;;;16.77;7.50;;;;;;;-5.49;85.36;100867.59;5073033;28;20766;-68
2022/11/19 05:53:27;;;;;;;20.77;9.70;;;;;;;-5.52;85.43;100872.44;5075740;28;20528;-68
2022/11/19 05:55:53;;;;;;;14.77;9.87;;;;;;;-5.30;84.11;100875.91;5093312;28;20194;-68
2022/11/19 05:58:20;;;;;;;24.60;9.93;;;;;;;-5.24;81.93;100878.56;5089003;28;20444;-68
2022/11/19 06:00:46;;;;;;;21.40;11.00;;;;;;;-5.17;81.14;100881.28;5072414;28;20480;-68
2022/11/19 06:03:13;;;;;;;22.40;13.67;;;;;;;-5.39;80.96;100888.41;5072101;28;20540;-69
2022/11/19 06:05:41;;;;;;;23.00;12.53;;;;;;;-5.55;84.29;100878.91;5072938;28;20481;-69
2022/11/19 06:08:07;;;;;;;21.43;11.10;;;;;;;-5.59;84.86;100880.28;5072659;28;20463;-68
2022/11/19 06:10:34;;;;;;;22.93;12.93;;;;;;;-5.65;84.85;100881.03;5071696;28;20928;-69
2022/11/19 06:13:00;;;;;;;21.07;11.40;;;;;;;-5.69;83.76;100883.22;5072321;28;20464;-68
2022/11/19 06:15:27;;;;;;;20.20;11.40;;;;;;;-5.71;84.05;100887.03;5073488;28;20869;-69
2022/11/19 06:17:55;;;;;;;23.30;10.83;;;;;;;-5.61;82.93;100882.28;5070816;28;20499;-69
2022/11/19 06:20:22;;;;;;;19.80;11.43;;;;;;;-5.46;81.18;100890.16;5073028;28;20504;-68
2022/11/19 06:22:50;;;;;;;22.50;11.97;;;;;;;-5.70;82.58;100883.41;5071569;28;21009;-69
2022/11/19 06:25:17;;;;;;;21.70;8.60;;;;;;;-5.62;81.96;100885.94;5072729;28;20477;-69
2022/11/19 06:27:43;;;;;;;17.17;8.73;;;;;;;-5.79;82.96;100880.09;5072036;28;20876;-69
2022/11/19 06:30:12;;;;;;;15.90;8.60;;;;;;;-5.82;84.04;100883.09;5072948;28;20477;-69
2022/11/19 06:32:38;;;;;;;21.03;8.63;;;;;;;-5.92;83.67;100872.06;5071389;28;20556;-68
2022/11/19 06:35:06;;;;;;;23.23;9.30;;;;;;;-5.90;85.17;100884.00;5072875;28;20438;-69
2022/11/19 06:37:32;;;;;;;25.30;10.37;;;;;;;-5.98;83.81;100875.41;5071904;28;20543;-68
2022/11/19 06:40:00;;;;;;;23.97;10.37;;;;;;;-5.81;83.73;100870.72;5070507;28;20484;-69
2022/11/19 06:42:36;;;;;;;19.23;9.67;;;;;;;-5.70;85.16;100863.13;5071395;28;20489;-68
2022/11/19 06:45:03;;;;;;;19.50;9.40;;;;;;;-5.66;83.96;100863.59;5072794;28;20547;-68
2022/11/19 06:47:30;;;;;;;23.07;9.17;;;;;;;-5.73;83.17;100863.50;5071702;28;20457;-68
2022/11/19 06:49:56;;;;;;;20.00;9.60;;;;;;;-5.71;82.64;100874.69;5070768;28;20564;-67
2022/11/19 06:52:23;;;;;;;25.20;11.40;;;;;;;-5.80;83.99;100877.63;5072747;28;20441;-70
2022/11/19 06:54:50;;;;;;;19.50;9.00;;;;;;;-5.82;84.08;100874.34;5070303;28;20481;-67
2022/11/19 06:57:18;;;;;;;21.67;10.40;;;;;;;-5.72;85.72;100867.75;5072735;28;20461;-67
2022/11/19 06:59:44;;;;;;;20.03;9.07;;;;;;;-5.61;83.81;100874.38;5071703;28;20250;-67
2022/11/19 07:02:12;;;;;;;17.83;8.87;;;;;;;-5.42;82.70;100880.84;5071013;28;20502;-67
2022/11/19 07:04:38;;;;;;;19.17;9.33;;;;;;;-5.46;83.29;100880.41;5070827;28;20534;-67
2022/11/19 07:07:05;;;;;;;12.90;6.10;;;;;;;-5.43;84.82;100890.59;5070856;28;22309;-68
2022/11/19 07:09:32;;;;;;;16.83;7.40;;;;;;;-5.34;86.71;100889.47;5075592;28;20453;-68
2022/11/19 07:11:59;;;;;;;16.73;8.10;;;;;;;-5.25;87.07;100886.69;5075995;28;20520;-68
2022/11/19 07:14:27;;;;;;;21.00;7.80;;;;;;;-5.21;87.77;100890.59;5061052;28;20469;-68
2022/11/19 07:16:55;;;;;;;13.80;7.33;;;;;;;-5.06;86.53;100896.59;5065510;28;20473;-68
2022/11/19 07:19:22;;;;;;;13.37;7.23;;;;;;;-5.09;87.61;100894.31;5076034;28;20462;-67
2022/11/19 07:21:48;;;;;;;17.10;8.33;;;;;;;-5.04;88.37;100896.44;5074762;28;20460;-68
2022/11/19 07:24:16;;;;;;;18.33;8.10;;;;;;;-4.95;88.40;100893.44;5074593;28;20876;-67
2022/11/19 07:26:43;;;;;;;17.50;8.13;;;;;;;-4.91;88.12;100883.31;5074051;28;20472;-68
2022/11/19 07:29:12;;;;;;;15.93;7.13;;;;;;;-4.78;89.37;100879.94;5074816;28;20534;-68
2022/11/19 07:31:40;;;;;;;18.83;9.50;;;;;;;-4.78;89.62;100877.28;5073364;28;20540;-68
2022/11/19 07:34:08;;;;;;;14.40;6.80;;;;;;;-4.64;90.00;100881.69;5075317;28;20839;-67
2022/11/19 07:36:35;;;;;;;16.60;7.53;;;;;;;-4.61;91.04;100879.44;5075891;28;20450;-68
2022/11/19 07:39:02;;;;;;;16.20;7.33;;;;;;;-4.42;91.77;100882.41;5075061;28;20491;-67
2022/11/19 07:44:12;;;;;;;15.00;7.10;;;;;;;-3.97;91.58;100881.00;5073682;28;20506;-67
2022/11/19 07:46:41;;;;;;;14.70;5.17;;;;;;;-3.70;91.25;100881.06;5055510;28;20446;-67
2022/11/19 07:49:08;;;;;;;13.50;5.77;;;;;;;-3.54;91.45;100880.72;5055848;28;20438;-67
2022/11/19 07:51:34;;;;;;;19.37;7.20;;;;;;;-3.36;91.50;100878.28;5077463;28;20533;-68
2022/11/19 07:54:01;;;;;;;21.43;9.17;;;;;;;-3.23;90.23;100882.78;5078038;28;20434;-67
2022/11/19 07:56:28;;;;;;;19.40;7.37;;;;;;;-3.12;91.12;100884.81;5077497;28;20485;-65
2022/11/19 07:58:54;;;;;;;18.13;7.07;;;;;;;-2.82;90.80;100885.22;5076962;28;20450;-67
2022/11/19 08:01:23;;;;;;;13.77;6.13;;;;;;;-2.67;90.47;100892.13;5074765;28;20464;-67
2022/11/19 08:03:52;;;;;;;12.43;6.13;;;;;;;-2.50;90.21;100879.25;5076295;28;20536;-67
2022/11/19 08:06:20;;;;;;;11.97;6.67;;;;;;;-2.40;90.09;100882.28;5075699;28;20449;-67
2022/11/19 08:08:47;;;;;;;11.13;5.33;;;;;;;-2.30;89.76;100882.69;5075796;28;20484;-68
2022/11/19 08:11:15;;;;;;;8.10;4.60;;;;;;;-2.16;89.75;100870.19;5079073;28;20464;-67
2022/11/19 08:13:43;;;;;;;14.23;5.40;;;;;;;-2.08;89.67;100869.94;5061903;28;20549;-68
2022/11/19 08:16:12;;;;;;;11.30;5.37;;;;;;;-1.97;89.49;100861.31;5057062;28;20496;-67
2022/11/19 08:18:38;;;;;;;10.20;4.73;;;;;;;-1.80;88.28;100862.47;5073206;28;20487;-68
2022/11/19 08:21:08;;;;;;;12.43;5.63;;;;;;;-1.75;89.13;100858.34;5074336;28;20538;-68
2022/11/19 08:23:36;;;;;;;8.30;3.83;;;;;;;-1.59;88.61;100860.50;5075106;28;20443;-68
2022/11/19 08:26:03;;;;;;;11.77;3.80;;;;;;;-1.58;87.89;100856.81;5072543;28;20568;-68
2022/11/19 08:28:30;;;;;;;12.17;5.17;;;;;;;-1.50;87.68;100853.91;5073734;28;20997;-67
2022/11/19 08:30:57;;;;;;;11.80;4.60;;;;;;;-1.35;87.77;100848.28;5074460;28;20857;-67
2022/11/19 08:33:24;;;;;;;8.67;3.83;;;;;;;-1.33;87.71;100847.06;5073650;28;20480;-67
2022/11/19 08:35:54;;;;;;;10.87;4.13;;;;;;;-1.27;87.81;100842.72;5074777;28;20441;-67
2022/11/19 08:38:22;;;;;;;9.70;4.20;;;;;;;-1.12;87.47;100856.47;5072277;28;20970;-68
2022/11/19 08:40:51;;;;;;;10.00;3.40;;;;;;;-1.02;86.97;100853.31;5074656;28;20484;-67
2022/11/19 08:43:17;;;;;;;8.93;3.63;;;;;;;-0.92;86.38;100855.50;5074320;28;20449;-67
2022/11/19 08:45:51;;;;;;;13.17;4.27;;;;;;;-0.88;86.58;100846.88;5074502;28;20495;-67
2022/11/19 08:48:18;;;;;;;7.87;3.43;;;;;;;-0.79;86.19;100848.22;5074652;28;20183;-67
2022/11/19 08:50:45;;;;;;;14.37;4.57;;;;;;;-0.81;86.92;100844.94;5074129;28;20472;-67
2022/11/19 08:53:11;;;;;;;11.00;4.17;;;;;;;-0.79;87.48;100840.25;5074443;28;21021;-67
2022/11/19 08:55:39;;;;;;;10.07;4.27;;;;;;;-0.69;87.09;100838.91;5074326;28;20476;-67
2022/11/19 08:58:07;;;;;;;7.20;3.50;;;;;;;-0.66;86.58;100841.16;5074323;28;20476;-69
2022/11/19 09:00:36;;;;;;;9.70;4.30;;;;;;;-0.66;86.20;100846.47;5074172;28;20492;-69
2022/11/19 09:03:03;;;;;;;8.47;3.80;;;;;;;-0.67;86.71;100842.16;5074190;28;20836;-69
2022/11/19 09:05:30;;;;;;;10.27;3.50;;;;;;;-0.64;86.29;100847.06;5074118;28;20564;-69
2022/11/19 09:07:56;;;;;;;10.67;3.67;;;;;;;-0.58;86.43;100848.81;5073874;28;20536;-69
2022/11/19 09:10:23;;;;;;;8.77;3.70;;;;;;;-0.56;86.34;100849.44;5074060;28;20493;-69
2022/11/19 09:12:51;;;;;;;8.60;3.80;;;;;;;-0.48;86.64;100843.00;5074036;28;20528;-69
2022/11/19 09:15:19;;;;;;;9.83;3.77;;;;;;;-0.46;87.83;100847.06;5074001;28;20447;-68
2022/11/19 09:17:45;;;;;;;9.27;4.33;;;;;;;-0.31;86.76;100854.66;5073940;28;20480;-68
2022/11/19 09:20:12;;;;;;;12.40;3.73;;;;;;;-0.22;86.46;100858.69;5073837;28;20545;-68
2022/11/19 09:22:39;;;;;;;9.80;3.70;;;;;;;-0.15;86.01;100856.72;5073835;28;20441;-68
2022/11/19 09:25:07;;;;;;;9.20;3.93;;;;;;;-0.07;86.24;100858.28;5073297;28;20480;-68
2022/11/19 09:27:34;;;;;;;8.97;3.67;;;;;;;0.00;85.71;100859.03;5073888;28;20528;-66
2022/11/19 09:30:02;;;;;;;8.83;3.53;;;;;;;0.07;85.48;100858.91;5072877;28;20480;-66
2022/11/19 09:32:28;;;;;;;9.70;3.57;;;;;;;0.08;85.26;100869.34;5073483;28;20441;-66
2022/11/19 09:34:55;;;;;;;8.63;3.50;;;;;;;0.10;84.26;100866.47;5073430;28;20528;-65
2022/11/19 09:37:22;;;;;;;10.03;3.67;;;;;;;0.09;84.54;100860.34;5073204;28;20824;-66
2022/11/19 09:39:48;;;;;;;8.40;3.80;;;;;;;0.10;85.31;100861.97;5073569;28;20522;-65
2022/11/19 09:42:19;;;;;;;12.27;3.77;;;;;;;0.13;85.51;100850.03;5073530;28;20441;-65
2022/11/19 09:44:56;;;;;;;10.33;4.30;;;;;;;0.22;85.48;100844.19;5073555;28;20475;-65
2022/11/19 09:47:33;;;;;;;8.80;3.60;;;;;;;0.38;85.13;100844.56;5073210;28;20440;-65
2022/11/19 09:50:12;;;;;;;11.80;4.30;;;;;;;0.52;83.82;100840.66;5073467;28;20496;-66
2022/11/19 09:52:44;;;;;;;8.97;4.17;;;;;;;0.48;83.17;100837.63;5073501;28;20483;-65
2022/11/19 09:55:18;;;;;;;10.40;3.13;;;;;;;0.69;82.79;100838.16;5073492;28;20513;-66
2022/11/19 09:57:49;;;;;;;11.83;4.17;;;;;;;0.71;82.96;100830.75;5073462;28;20513;-66
2022/11/19 10:00:19;;;;;;;12.10;4.27;;;;;;;0.82;82.20;100831.81;5073407;28;20467;-65
2022/11/19 10:02:48;;;;;;;9.47;4.13;;;;;;;0.78;81.53;100836.78;5073324;28;20468;-65
2022/11/19 10:05:17;;;;;;;7.77;3.40;;;;;;;0.76;80.90;100822.88;5073256;28;20487;-64
2022/11/19 10:07:54;;;;;;;13.60;2.57;;;;;;;0.83;81.77;100818.22;5073145;28;20442;-65
2022/11/19 10:10:33;;;;;;;12.70;3.70;;;;;;;0.85;81.83;100810.03;5073300;28;20456;-65
2022/11/19 10:13:30;;;;;;;8.73;3.40;;;;;;;0.93;81.15;100818.50;5072892;28;20461;-65
2022/11/19 10:16:12;;;;;;;9.70;3.30;;;;;;;0.92;80.33;100816.03;5073201;28;20432;-65
2022/11/19 10:18:49;;;;;;;6.70;2.90;;;;;;;0.88;81.32;100809.53;5072853;28;20832;-65
2022/11/19 10:21:23;;;;;;;6.30;2.83;;;;;;;0.89;81.18;100813.84;5073067;28;20457;-65
2022/11/19 10:23:54;;;;;;;6.23;2.80;;;;;;;0.98;81.47;100810.59;5073163;28;20422;-65
2022/11/19 10:26:27;;;;;;;6.87;3.13;;;;;;;1.00;81.61;100807.69;5073032;28;20466;-65
2022/11/19 10:28:56;;;;;;;9.07;4.10;;;;;;;1.15;81.36;100809.88;5072622;28;20437;-66
2022/11/19 10:31:29;;;;;;;8.10;3.20;;;;;;;1.27;80.90;100808.84;5072956;28;20444;-66
2022/11/19 10:34:06;;;;;;;9.07;3.30;;;;;;;1.40;79.95;100813.13;5073023;28;20531;-65
2022/11/19 10:36:38;;;;;;;10.40;3.90;;;;;;;1.50;77.11;100807.16;5072979;28;20449;-65
2022/11/19 10:39:12;;;;;;;8.17;3.30;;;;;;;1.63;75.99;100806.91;5072553;28;20513;-65
2022/11/19 10:41:45;;;;;;;8.20;2.97;;;;;;;1.65;75.50;100802.16;5072963;28;20472;-65
2022/11/19 10:47:20;;;;;;;6.33;2.53;;;;;;;1.74;74.27;100797.25;5111374;27;20546;-64
2022/11/19 10:49:52;;;;;;;9.80;3.73;;;;;;;1.63;74.15;100784.75;5110922;28;20625;-64
2022/11/19 10:52:26;;;;;;;7.20;2.40;;;;;;;1.61;74.63;100782.31;5111070;28;20851;-64
2022/11/19 10:54:56;;;;;;;7.00;2.60;;;;;;;1.73;75.20;100777.75;5111043;28;20459;-64
2022/11/19 10:57:24;;;;;;;8.10;2.67;;;;;;;1.86;74.88;100773.16;5111016;28;20424;-64
2022/11/19 10:59:53;;;;;;;9.83;2.80;;;;;;;1.89;74.67;100770.84;5110525;28;20456;-64
2022/11/19 11:02:26;;;;;;;8.57;3.43;;;;;;;2.00;74.44;100763.84;5110911;28;20439;-66
2022/11/19 11:05:01;;;;;;;9.20;2.70;;;;;;;2.10;73.18;100766.69;5110816;28;20434;-64
2022/11/19 11:07:48;;;;;;;11.03;3.63;;;;;;;2.07;72.87;100761.81;5110752;28;20474;-64
2022/11/19 11:10:41;;;;;;;10.30;4.13;;;;;;;2.23;72.72;100765.56;5110558;28;20499;-64
2022/11/19 11:16:16;;;;;;;7.67;3.07;;;;;;;2.33;73.00;100757.72;5110498;28;20481;-65
2022/11/19 11:18:45;;;;;;;8.57;3.10;;;;;;;2.47;72.93;100755.53;5110647;28;20430;-65
2022/11/19 11:21:23;;;;;;;7.40;3.07;;;;;;;2.81;71.72;100747.50;5110535;28;20468;-66
2022/11/19 11:23:53;;;;;;;8.40;3.60;;;;;;;3.82;69.77;100733.78;5110515;28;20522;-65
2022/11/19 11:26:24;;;;;;;8.60;3.50;;;;;;;4.99;63.55;100740.06;5110393;28;20621;-66
2022/11/19 11:28:56;;;;;;;9.00;3.50;;;;;;;6.37;59.33;100745.88;5110041;28;20960;-66
2022/11/19 11:31:37;;;;;;;5.80;2.20;;;;;;;6.88;55.51;100745.84;5110322;28;20450;-65
2022/11/19 11:34:07;;;;;;;10.40;3.20;;;;;;;7.02;54.91;100742.31;5110326;28;20436;-66
2022/11/19 11:36:36;;;;;;;8.50;2.67;;;;;;;6.83;55.18;100742.09;5110228;28;20436;-66
2022/11/19 11:39:04;;;;;;;6.10;2.17;;;;;;;6.94;55.12;100739.38;5109949;28;20534;-65
2022/11/19 11:41:39;;;;;;;8.10;2.63;;;;;;;7.02;55.29;100739.63;5110095;28;20486;-65
2022/11/19 11:44:07;;;;;;;6.10;2.60;;;;;;;7.33;54.77;100731.44;5109730;28;20432;-66
2022/11/19 11:46:44;;;;;;;7.17;2.53;;;;;;;7.72;53.55;100734.22;5109472;28;20490;-64
2022/11/19 11:49:26;;;;;;;6.83;2.43;;;;;;;8.14;52.98;100732.88;5109946;28;20868;-65
2022/11/19 11:52:02;;;;;;;10.20;3.13;;;;;;;8.74;51.54;100730.78;5109659;28;20897;-65